AIC1612 VOBL-VOMM
Flight info
| Callsign | AIC1612 |
|---|---|
| Flight time | 0h 31m |
| Altitude | 19000 |
| Route | TULNA8A TULNA W116 MMV |
| Aircraft | B77W/H-SDE1E2E3FGHIJ2J3J4J5M1RWXY/LB1D1 |
Departure
| Time | 2026-05-09 10:11 |
|---|---|
| Airport | Kempegowda International Airport Bengaluru (VOBL) |
Arrival
| Time | 2026-05-09 10:42 |
|---|---|
| Airport | Chennai International Airport (VOMM) |
| Time | Latitude | Longitude | Altitude | Speed | Heading |
|---|---|---|---|---|---|
| 2026-05-09 09:57 | 13.20353 | 77.69454 | 3016 ft | 0 kts | 0° |
| 2026-05-09 10:02 | 13.20352 | 77.69454 | 3016 ft | 0 kts | 0° |
| 2026-05-09 10:04 | 13.20353 | 77.69454 | 3016 ft | 0 kts | 0° |
| 2026-05-09 10:05 | 13.20352 | 77.69454 | 3016 ft | 1 kts | 0° |
| 2026-05-09 10:05 | 13.20336 | 77.69454 | 3019 ft | 2 kts | 0° |
| 2026-05-09 10:05 | 13.20318 | 77.69453 | 3019 ft | 3 kts | 0° |
| 2026-05-09 10:05 | 13.20300 | 77.69453 | 3017 ft | 3 kts | 0° |
| 2026-05-09 10:06 | 13.20281 | 77.69453 | 3023 ft | 3 kts | 339° |
| 2026-05-09 10:06 | 13.20274 | 77.69458 | 3020 ft | 0 kts | 271° |
| 2026-05-09 10:07 | 13.20274 | 77.69455 | 3021 ft | 1 kts | 271° |
| 2026-05-09 10:07 | 13.20275 | 77.69439 | 3020 ft | 4 kts | 271° |
| 2026-05-09 10:07 | 13.20275 | 77.69404 | 3016 ft | 6 kts | 271° |
| 2026-05-09 10:08 | 13.20285 | 77.69352 | 3016 ft | 8 kts | 302° |
| 2026-05-09 10:08 | 13.20341 | 77.69332 | 3016 ft | 10 kts | 0° |
| 2026-05-09 10:08 | 13.20416 | 77.69332 | 3016 ft | 12 kts | 0° |
| 2026-05-09 10:08 | 13.20506 | 77.69327 | 3016 ft | 14 kts | 341° |
| 2026-05-09 10:09 | 13.20542 | 77.69256 | 3016 ft | 12 kts | 274° |
| 2026-05-09 10:09 | 13.20552 | 77.69214 | 3016 ft | 4 kts | 315° |
| 2026-05-09 10:09 | 13.20587 | 77.69203 | 3016 ft | 8 kts | 355° |
| 2026-05-09 10:09 | 13.20661 | 77.69205 | 3016 ft | 13 kts | 6° |
| 2026-05-09 10:10 | 13.20713 | 77.69276 | 3016 ft | 15 kts | 84° |
| 2026-05-09 10:10 | 13.20713 | 77.69471 | 3016 ft | 56 kts | 90° |
| 2026-05-09 10:10 | 13.20707 | 77.70132 | 3016 ft | 127 kts | 90° |
| 2026-05-09 10:10 | 13.20709 | 77.71242 | 3026 ft | 180 kts | 86° |
| 2026-05-09 10:11 | 13.20702 | 77.72575 | 3487 ft | 188 kts | 91° |
| 2026-05-09 10:11 | 13.20680 | 77.73909 | 4301 ft | 185 kts | 91° |
| 2026-05-09 10:11 | 13.20662 | 77.75237 | 5054 ft | 186 kts | 89° |
| 2026-05-09 10:11 | 13.20648 | 77.76646 | 5362 ft | 213 kts | 90° |
| 2026-05-09 10:12 | 13.20629 | 77.78281 | 5585 ft | 244 kts | 90° |
| 2026-05-09 10:12 | 13.20609 | 77.80102 | 6122 ft | 260 kts | 90° |
| 2026-05-09 10:12 | 13.20593 | 77.81960 | 7011 ft | 263 kts | 90° |
| 2026-05-09 10:12 | 13.20582 | 77.83212 | 7541 ft | 267 kts | 89° |
| 2026-05-09 10:13 | 13.20560 | 77.85734 | 8740 ft | 269 kts | 89° |
| 2026-05-09 10:13 | 13.20544 | 77.87677 | 9505 ft | 276 kts | 89° |
| 2026-05-09 10:13 | 13.20533 | 77.89017 | 10034 ft | 279 kts | 89° |
| 2026-05-09 10:13 | 13.20516 | 77.91051 | 10592 ft | 295 kts | 89° |
| 2026-05-09 10:14 | 13.20292 | 77.94018 | 10902 ft | 335 kts | 97° |
| 2026-05-09 10:14 | 13.19998 | 77.95618 | 11092 ft | 354 kts | 100° |
| 2026-05-09 10:14 | 13.19459 | 77.98127 | 11882 ft | 364 kts | 101° |
| 2026-05-09 10:14 | 13.18890 | 78.00697 | 12854 ft | 367 kts | 101° |
| 2026-05-09 10:15 | 13.18336 | 78.03230 | 13590 ft | 370 kts | 101° |
| 2026-05-09 10:15 | 13.17782 | 78.05833 | 13941 ft | 376 kts | 100° |
| 2026-05-09 10:15 | 13.17235 | 78.08457 | 13922 ft | 372 kts | 100° |
| 2026-05-09 10:15 | 13.16702 | 78.11049 | 13926 ft | 375 kts | 100° |
| 2026-05-09 10:16 | 13.16169 | 78.13686 | 13936 ft | 379 kts | 100° |
| 2026-05-09 10:16 | 13.15635 | 78.16344 | 14075 ft | 384 kts | 100° |
| 2026-05-09 10:16 | 13.15094 | 78.19033 | 15061 ft | 382 kts | 100° |
| 2026-05-09 10:16 | 13.14560 | 78.21690 | 16102 ft | 379 kts | 101° |
| 2026-05-09 10:17 | 13.14031 | 78.24329 | 16775 ft | 378 kts | 101° |
| 2026-05-09 10:17 | 13.13501 | 78.26972 | 16926 ft | 380 kts | 101° |
| 2026-05-09 10:17 | 13.12966 | 78.29636 | 16925 ft | 380 kts | 101° |
| 2026-05-09 10:17 | 13.12435 | 78.32283 | 16911 ft | 378 kts | 101° |
| 2026-05-09 10:18 | 13.11904 | 78.34922 | 16921 ft | 377 kts | 101° |
| 2026-05-09 10:18 | 13.11374 | 78.37558 | 16918 ft | 377 kts | 101° |
| 2026-05-09 10:18 | 13.10844 | 78.40192 | 16913 ft | 378 kts | 101° |
| 2026-05-09 10:18 | 13.10313 | 78.42833 | 16915 ft | 378 kts | 101° |
| 2026-05-09 10:19 | 13.09781 | 78.45473 | 16911 ft | 378 kts | 101° |
| 2026-05-09 10:19 | 13.09249 | 78.48111 | 16910 ft | 378 kts | 101° |
| 2026-05-09 10:19 | 13.08716 | 78.50757 | 16907 ft | 378 kts | 101° |
| 2026-05-09 10:19 | 13.08188 | 78.53371 | 16903 ft | 379 kts | 101° |
| 2026-05-09 10:20 | 13.07655 | 78.56013 | 16907 ft | 379 kts | 101° |
| 2026-05-09 10:20 | 13.07121 | 78.58657 | 16897 ft | 379 kts | 101° |
| 2026-05-09 10:20 | 13.06585 | 78.61312 | 16898 ft | 379 kts | 101° |
| 2026-05-09 10:20 | 13.06050 | 78.63959 | 16897 ft | 379 kts | 101° |
| 2026-05-09 10:21 | 13.05514 | 78.66607 | 16894 ft | 379 kts | 101° |
| 2026-05-09 10:21 | 13.04978 | 78.69257 | 16892 ft | 379 kts | 101° |
| 2026-05-09 10:21 | 13.04441 | 78.71910 | 16891 ft | 379 kts | 101° |
| 2026-05-09 10:21 | 13.03906 | 78.74555 | 16892 ft | 379 kts | 101° |
| 2026-05-09 10:22 | 13.03368 | 78.77206 | 16883 ft | 379 kts | 101° |
| 2026-05-09 10:22 | 13.02830 | 78.79857 | 16884 ft | 379 kts | 101° |
| 2026-05-09 10:22 | 13.02293 | 78.82503 | 16884 ft | 379 kts | 101° |
| 2026-05-09 10:22 | 13.01755 | 78.85154 | 16875 ft | 379 kts | 101° |
| 2026-05-09 10:23 | 13.01218 | 78.87802 | 16883 ft | 379 kts | 101° |
| 2026-05-09 10:23 | 13.00679 | 78.90455 | 16870 ft | 380 kts | 101° |
| 2026-05-09 10:23 | 13.00140 | 78.93101 | 16872 ft | 379 kts | 101° |
| 2026-05-09 10:23 | 12.99599 | 78.95755 | 16870 ft | 379 kts | 101° |
| 2026-05-09 10:24 | 12.99060 | 78.98405 | 16865 ft | 379 kts | 101° |
| 2026-05-09 10:24 | 12.98523 | 79.01043 | 16856 ft | 378 kts | 101° |
| 2026-05-09 10:24 | 12.97991 | 79.03656 | 16811 ft | 370 kts | 101° |
| 2026-05-09 10:24 | 12.97472 | 79.06200 | 16718 ft | 361 kts | 101° |
| 2026-05-09 10:25 | 12.96959 | 79.08714 | 16257 ft | 360 kts | 101° |
| 2026-05-09 10:25 | 12.96388 | 79.11207 | 15794 ft | 360 kts | 104° |
| 2026-05-09 10:25 | 12.95683 | 79.13664 | 15327 ft | 359 kts | 106° |
| 2026-05-09 10:25 | 12.94944 | 79.16080 | 14838 ft | 346 kts | 106° |
| 2026-05-09 10:26 | 12.94241 | 79.18366 | 14354 ft | 327 kts | 105° |
| 2026-05-09 10:26 | 12.93580 | 79.20541 | 13895 ft | 312 kts | 105° |
| 2026-05-09 10:26 | 12.92959 | 79.22609 | 13409 ft | 302 kts | 105° |
| 2026-05-09 10:26 | 12.92348 | 79.24664 | 12880 ft | 306 kts | 104° |
| 2026-05-09 10:27 | 12.91719 | 79.26797 | 12282 ft | 318 kts | 105° |
| 2026-05-09 10:27 | 12.91073 | 79.28985 | 11701 ft | 324 kts | 105° |
| 2026-05-09 10:27 | 12.90433 | 79.31147 | 11070 ft | 310 kts | 105° |
| 2026-05-09 10:27 | 12.89821 | 79.33220 | 10474 ft | 298 kts | 104° |
| 2026-05-09 10:28 | 12.89220 | 79.35265 | 9922 ft | 302 kts | 105° |
| 2026-05-09 10:28 | 12.88608 | 79.37349 | 9341 ft | 309 kts | 105° |
| 2026-05-09 10:28 | 12.87982 | 79.39474 | 8855 ft | 312 kts | 105° |
| 2026-05-09 10:28 | 12.87354 | 79.41605 | 8390 ft | 313 kts | 105° |
| 2026-05-09 10:29 | 12.86723 | 79.43745 | 7932 ft | 314 kts | 105° |
| 2026-05-09 10:29 | 12.86090 | 79.45892 | 7481 ft | 315 kts | 105° |
| 2026-05-09 10:29 | 12.85470 | 79.47983 | 7015 ft | 297 kts | 105° |
| 2026-05-09 10:29 | 12.85077 | 79.49985 | 6513 ft | 277 kts | 86° |
| 2026-05-09 10:30 | 12.85502 | 79.51834 | 6074 ft | 260 kts | 67° |
| 2026-05-09 10:30 | 12.86171 | 79.53530 | 5612 ft | 257 kts | 68° |
| 2026-05-09 10:30 | 12.86812 | 79.55270 | 5183 ft | 264 kts | 69° |
| 2026-05-09 10:30 | 12.87464 | 79.57049 | 4727 ft | 270 kts | 69° |
| 2026-05-09 10:31 | 12.88140 | 79.58894 | 4305 ft | 281 kts | 69° |
| 2026-05-09 10:31 | 12.88839 | 79.60785 | 3880 ft | 286 kts | 69° |
| 2026-05-09 10:31 | 12.89552 | 79.62715 | 3412 ft | 291 kts | 69° |
| 2026-05-09 10:31 | 12.90236 | 79.64575 | 3107 ft | 267 kts | 70° |
| 2026-05-09 10:32 | 12.90867 | 79.66288 | 2834 ft | 247 kts | 69° |
| 2026-05-09 10:32 | 12.91457 | 79.67887 | 2580 ft | 237 kts | 69° |
| 2026-05-09 10:32 | 12.92051 | 79.69499 | 2451 ft | 242 kts | 69° |
| 2026-05-09 10:32 | 12.92411 | 79.71118 | 2405 ft | 236 kts | 90° |
| 2026-05-09 10:33 | 12.92173 | 79.72755 | 2340 ft | 229 kts | 100° |
| 2026-05-09 10:33 | 12.91880 | 79.74353 | 2332 ft | 228 kts | 99° |
| 2026-05-09 10:33 | 12.91609 | 79.75939 | 2318 ft | 223 kts | 98° |
| 2026-05-09 10:33 | 12.91341 | 79.77495 | 2335 ft | 221 kts | 99° |
| 2026-05-09 10:34 | 12.91076 | 79.79054 | 2317 ft | 223 kts | 99° |
| 2026-05-09 10:34 | 12.90556 | 79.82196 | 2321 ft | 224 kts | 99° |
| 2026-05-09 10:34 | 12.90298 | 79.83768 | 2344 ft | 223 kts | 98° |
| 2026-05-09 10:35 | 12.90038 | 79.85327 | 2318 ft | 220 kts | 98° |
| 2026-05-09 10:35 | 12.89787 | 79.86852 | 2321 ft | 220 kts | 98° |
| 2026-05-09 10:35 | 12.89534 | 79.88408 | 2324 ft | 222 kts | 98° |
| 2026-05-09 10:35 | 12.89306 | 79.89972 | 2311 ft | 219 kts | 91° |
| 2026-05-09 10:36 | 12.89599 | 79.91501 | 2315 ft | 219 kts | 71° |
| 2026-05-09 10:36 | 12.90104 | 79.92960 | 2245 ft | 214 kts | 71° |
| 2026-05-09 10:36 | 12.90591 | 79.94345 | 2032 ft | 196 kts | 70° |
| 2026-05-09 10:36 | 12.91043 | 79.95579 | 1930 ft | 180 kts | 70° |
| 2026-05-09 10:37 | 12.91499 | 79.96805 | 1847 ft | 186 kts | 69° |
| 2026-05-09 10:37 | 12.91955 | 79.98025 | 1816 ft | 180 kts | 70° |
| 2026-05-09 10:37 | 12.92400 | 79.99210 | 1816 ft | 178 kts | 69° |
| 2026-05-09 10:37 | 12.92845 | 80.00402 | 1805 ft | 181 kts | 69° |
| 2026-05-09 10:38 | 12.93295 | 80.01609 | 1808 ft | 180 kts | 69° |
| 2026-05-09 10:38 | 12.93746 | 80.02814 | 1816 ft | 183 kts | 69° |
| 2026-05-09 10:38 | 12.94195 | 80.04013 | 1803 ft | 179 kts | 69° |
| 2026-05-09 10:38 | 12.94637 | 80.05192 | 1807 ft | 176 kts | 70° |
| 2026-05-09 10:39 | 12.95051 | 80.06302 | 1773 ft | 154 kts | 69° |
| 2026-05-09 10:39 | 12.95416 | 80.07279 | 1653 ft | 144 kts | 69° |
| 2026-05-09 10:39 | 12.95756 | 80.08191 | 1481 ft | 137 kts | 70° |
| 2026-05-09 10:39 | 12.96094 | 80.09094 | 1299 ft | 137 kts | 69° |
| 2026-05-09 10:40 | 12.96438 | 80.10015 | 1130 ft | 141 kts | 69° |
| 2026-05-09 10:40 | 12.96789 | 80.10950 | 945 ft | 136 kts | 70° |
| 2026-05-09 10:40 | 12.97130 | 80.11866 | 772 ft | 141 kts | 69° |
| 2026-05-09 10:40 | 12.97478 | 80.12791 | 596 ft | 136 kts | 70° |
| 2026-05-09 10:41 | 12.97819 | 80.13710 | 425 ft | 142 kts | 68° |
| 2026-05-09 10:41 | 12.98177 | 80.14668 | 239 ft | 147 kts | 69° |
| 2026-05-09 10:41 | 12.98538 | 80.15624 | 92 ft | 141 kts | 68° |
| 2026-05-09 10:41 | 12.98848 | 80.16449 | 52 ft | 95 kts | 69° |
| 2026-05-09 10:42 | 12.99031 | 80.16937 | 57 ft | 68 kts | 69° |
| 2026-05-09 10:42 | 12.99110 | 80.17165 | 55 ft | 11 kts | 97° |
| 2026-05-09 10:42 | 12.99051 | 80.17213 | 53 ft | 11 kts | 160° |
| 2026-05-09 10:42 | 12.98976 | 80.17238 | 55 ft | 10 kts | 176° |
| 2026-05-09 10:43 | 12.98936 | 80.17209 | 56 ft | 8 kts | 246° |
| 2026-05-09 10:43 | 12.98912 | 80.17153 | 55 ft | 9 kts | 246° |
| 2026-05-09 10:43 | 12.98886 | 80.17086 | 56 ft | 11 kts | 250° |
| 2026-05-09 10:43 | 12.98858 | 80.17003 | 53 ft | 13 kts | 248° |
| 2026-05-09 10:44 | 12.98822 | 80.16908 | 55 ft | 15 kts | 249° |
| 2026-05-09 10:44 | 12.98782 | 80.16801 | 55 ft | 16 kts | 249° |
| 2026-05-09 10:44 | 12.98731 | 80.16727 | 53 ft | 10 kts | 186° |
| 2026-05-09 10:44 | 12.98664 | 80.16751 | 54 ft | 11 kts | 159° |
| 2026-05-09 10:45 | 12.98594 | 80.16755 | 56 ft | 11 kts | 215° |
| 2026-05-09 10:46 | 12.98561 | 80.16675 | 56 ft | 6 kts | 250° |
| 2026-05-09 10:46 | 12.98543 | 80.16629 | 52 ft | 9 kts | 248° |
| 2026-05-09 10:46 | 12.98516 | 80.16555 | 54 ft | 13 kts | 250° |
| 2026-05-09 10:46 | 12.98477 | 80.16450 | 56 ft | 18 kts | 248° |
| 2026-05-09 10:47 | 12.98426 | 80.16316 | 54 ft | 22 kts | 249° |
| 2026-05-09 10:47 | 12.98369 | 80.16158 | 53 ft | 24 kts | 250° |
| 2026-05-09 10:47 | 12.98325 | 80.16041 | 51 ft | 2 kts | 233° |
| 2026-05-09 10:47 | 12.98305 | 80.16034 | 54 ft | 4 kts | 173° |
| 2026-05-09 10:48 | 12.98269 | 80.16048 | 56 ft | 6 kts | 158° |
| 2026-05-09 10:48 | 12.98258 | 80.16053 | 51 ft | 0 kts | 158° |